createdAt,value
2023-01-17T00:01:30.510Z,73.58
2023-01-17T00:04:15.489Z,73.19
2023-01-17T00:07:00.466Z,73.49
2023-01-17T00:09:45.280Z,73.45
2023-01-17T00:12:11.798Z,73.51
2023-01-17T00:14:38.142Z,73.43
2023-01-17T00:17:04.601Z,73.96
2023-01-17T00:19:49.816Z,73.82
2023-01-17T00:22:41.069Z,74.03
2023-01-17T00:25:30.171Z,73.95
2023-01-17T00:27:56.588Z,74.12
2023-01-17T00:30:23.322Z,74.02
2023-01-17T00:32:49.813Z,73.28
2023-01-17T00:35:16.676Z,73.84
2023-01-17T00:37:43.118Z,73.38
2023-01-17T00:40:10.334Z,73.16
2023-01-17T00:42:36.800Z,73.21
2023-01-17T00:45:22.881Z,73.67
2023-01-17T00:48:07.905Z,73.86
2023-01-17T00:50:55.732Z,73.74
2023-01-17T00:53:40.462Z,73.39
2023-01-17T00:56:25.830Z,73.31
2023-01-17T00:59:12.613Z,73.24
2023-01-17T01:01:57.839Z,72.78
2023-01-17T01:04:43.107Z,71.32
2023-01-17T01:07:28.015Z,70.41
2023-01-17T01:10:12.823Z,69.29
2023-01-17T01:12:57.677Z,68.49
2023-01-17T01:15:42.528Z,68.46
2023-01-17T01:18:28.353Z,68.57
2023-01-17T01:21:13.254Z,68.29
2023-01-17T01:23:57.954Z,67.95
2023-01-17T01:26:42.691Z,67.91
2023-01-17T01:29:27.395Z,68.02
2023-01-17T01:32:12.053Z,68.13
2023-01-17T01:34:38.462Z,67.78
2023-01-17T01:37:04.839Z,67.71
2023-01-17T01:39:31.187Z,67.45
2023-01-17T01:41:57.580Z,67.57
2023-01-17T01:44:48.541Z,67.08
2023-01-17T01:47:28.820Z,66.75
2023-01-17T01:49:55.486Z,67.20
2023-01-17T01:52:26.060Z,67.41
2023-01-17T01:54:57.912Z,67.50
2023-01-17T01:57:29.539Z,66.91
2023-01-17T01:59:59.730Z,67.21
2023-01-17T02:02:28.205Z,66.46
2023-01-17T02:04:54.602Z,66.85
2023-01-17T02:07:44.634Z,66.10
2023-01-17T02:10:12.715Z,66.28
2023-01-17T02:12:39.854Z,66.04
2023-01-17T02:15:07.523Z,66.18
2023-01-17T02:17:52.908Z,66.45
2023-01-17T02:20:32.980Z,66.60
2023-01-17T02:23:15.613Z,67.06
2023-01-17T02:26:03.850Z,66.60
2023-01-17T02:28:42.289Z,66.57
2023-01-17T02:31:17.675Z,65.94
2023-01-17T02:33:57.199Z,66.41
2023-01-17T02:36:29.647Z,66.27
2023-01-17T02:39:08.235Z,65.83
2023-01-17T02:41:40.668Z,65.66
2023-01-17T02:44:10.151Z,65.90
2023-01-17T02:46:48.194Z,65.77
2023-01-17T02:49:17.949Z,65.71
2023-01-17T02:52:12.372Z,65.16
2023-01-17T02:54:47.613Z,65.20
2023-01-17T02:57:33.030Z,64.94
2023-01-17T03:00:18.299Z,65.28
2023-01-17T03:02:50.806Z,64.77
2023-01-17T03:05:31.332Z,64.56
2023-01-17T03:07:59.264Z,64.35
2023-01-17T03:10:25.838Z,64.78
2023-01-17T03:12:57.769Z,64.29
2023-01-17T03:15:24.280Z,63.86
2023-01-17T03:17:53.110Z,63.39
2023-01-17T03:20:22.265Z,63.93
2023-01-17T03:22:48.906Z,63.23
2023-01-17T03:25:16.339Z,62.94
2023-01-17T03:27:42.706Z,62.51
2023-01-17T03:30:09.870Z,62.11
2023-01-17T03:32:36.252Z,61.99
2023-01-17T03:35:02.653Z,61.79
2023-01-17T03:37:29.028Z,61.59
2023-01-17T03:39:55.380Z,61.00
2023-01-17T03:42:21.739Z,61.60
2023-01-17T03:44:48.344Z,61.12
2023-01-17T03:47:14.771Z,61.48
2023-01-17T03:49:41.198Z,61.16
2023-01-17T03:52:07.615Z,61.13
2023-01-17T03:54:34.171Z,61.24
2023-01-17T03:57:00.598Z,61.42
2023-01-17T03:59:26.981Z,61.05
2023-01-17T04:01:53.518Z,60.95
2023-01-17T04:04:19.894Z,60.76
2023-01-17T04:06:47.968Z,61.14
2023-01-17T04:09:14.377Z,61.43
2023-01-17T04:11:40.745Z,61.18
2023-01-17T04:14:07.102Z,61.28
2023-01-17T04:16:33.769Z,61.04
2023-01-17T04:19:00.216Z,60.79
2023-01-17T04:21:26.570Z,61.30
2023-01-17T04:23:53.643Z,61.90
2023-01-17T04:26:20.388Z,60.86
2023-01-17T04:28:46.803Z,61.48
2023-01-17T04:31:15.686Z,61.29
2023-01-17T04:33:42.240Z,61.52
2023-01-17T04:36:08.967Z,61.34
2023-01-17T04:38:35.311Z,61.82
2023-01-17T04:41:01.939Z,61.43
2023-01-17T04:43:28.330Z,61.46
2023-01-17T04:45:58.907Z,61.54
2023-01-17T04:48:25.348Z,61.40
2023-01-17T04:50:51.763Z,61.26
2023-01-17T04:53:18.136Z,61.34
2023-01-17T04:55:47.505Z,61.39
2023-01-17T04:58:14.092Z,61.62
2023-01-17T05:00:40.525Z,61.66
2023-01-17T05:03:07.221Z,61.26
2023-01-17T05:05:33.707Z,61.61
2023-01-17T05:08:00.272Z,61.51
2023-01-17T05:10:27.092Z,61.21
2023-01-17T05:12:55.120Z,61.21
2023-01-17T05:15:21.891Z,61.44
2023-01-17T05:17:48.263Z,61.43
2023-01-17T05:20:14.649Z,60.84
2023-01-17T05:22:41.047Z,60.74
2023-01-17T05:25:07.758Z,61.33
2023-01-17T05:27:34.326Z,61.01
2023-01-17T05:30:00.695Z,60.66
2023-01-17T05:32:27.126Z,61.10
2023-01-17T05:34:53.486Z,60.59
2023-01-17T05:37:20.749Z,60.36
2023-01-17T05:39:47.097Z,60.18
2023-01-17T05:42:13.592Z,60.77
2023-01-17T05:44:40.578Z,60.13
2023-01-17T05:47:07.060Z,60.37
2023-01-17T05:49:33.452Z,59.87
2023-01-17T05:51:59.832Z,60.16
2023-01-17T05:54:26.193Z,60.60
2023-01-17T05:56:52.569Z,60.49
2023-01-17T05:59:32.268Z,60.90
2023-01-17T06:02:02.743Z,60.54
2023-01-17T06:04:29.270Z,60.46
2023-01-17T06:06:55.693Z,61.04
2023-01-17T06:09:22.277Z,60.85
2023-01-17T06:11:48.675Z,60.47
2023-01-17T06:14:15.047Z,60.98
2023-01-17T06:16:41.538Z,61.07
2023-01-17T06:19:09.452Z,61.70
2023-01-17T06:21:35.841Z,61.35
2023-01-17T06:24:04.098Z,61.18
2023-01-17T06:26:30.708Z,61.69
2023-01-17T06:28:57.094Z,61.74
2023-01-17T06:31:23.451Z,61.92
2023-01-17T06:33:49.910Z,61.97
2023-01-17T06:36:16.297Z,62.28
2023-01-17T06:38:42.655Z,62.20
2023-01-17T06:41:09.671Z,62.44
2023-01-17T06:43:36.048Z,62.28
2023-01-17T06:46:02.478Z,62.42
2023-01-17T06:48:28.876Z,61.91
2023-01-17T06:50:57.414Z,62.01
2023-01-17T06:53:23.948Z,62.57
2023-01-17T06:55:50.373Z,62.53
2023-01-17T06:58:16.739Z,62.93
2023-01-17T07:00:43.191Z,62.53
2023-01-17T07:03:19.119Z,62.26
2023-01-17T07:05:45.525Z,62.01
2023-01-17T07:08:11.941Z,62.13
2023-01-17T07:10:38.324Z,61.77
2023-01-17T07:13:04.703Z,61.51
2023-01-17T07:15:31.076Z,62.16
2023-01-17T07:18:01.122Z,61.88
2023-01-17T07:20:27.534Z,61.87
2023-01-17T07:22:53.916Z,61.25
2023-01-17T07:25:20.590Z,61.57
2023-01-17T07:27:46.964Z,62.16
2023-01-17T07:30:13.883Z,61.53
2023-01-17T07:32:40.401Z,61.57
2023-01-17T07:35:07.115Z,62.01
2023-01-17T07:37:33.543Z,61.67
2023-01-17T07:40:02.415Z,61.75
2023-01-17T07:42:28.820Z,61.83
2023-01-17T07:44:55.329Z,61.93
2023-01-17T07:47:22.031Z,61.86
2023-01-17T07:49:48.447Z,61.69
2023-01-17T07:52:16.865Z,62.06
2023-01-17T07:54:44.429Z,62.08
2023-01-17T07:57:13.854Z,61.84
2023-01-17T07:59:40.256Z,62.13
2023-01-17T08:02:14.920Z,61.69
2023-01-17T08:04:41.279Z,61.87
2023-01-17T08:07:07.655Z,61.47
2023-01-17T08:09:34.031Z,61.73
2023-01-17T08:12:01.095Z,61.80
2023-01-17T08:14:27.476Z,61.78
2023-01-17T08:16:53.854Z,61.21
2023-01-17T08:19:20.381Z,61.72
2023-01-17T08:21:46.946Z,61.53
2023-01-17T08:24:14.198Z,61.81
2023-01-17T08:26:40.601Z,61.62
2023-01-17T08:29:06.974Z,61.52
2023-01-17T08:31:35.235Z,61.92
2023-01-17T08:34:01.705Z,61.61
2023-01-17T08:36:28.796Z,61.76
2023-01-17T08:38:55.429Z,61.60
2023-01-17T08:41:22.739Z,61.96
2023-01-17T08:43:49.994Z,61.82
2023-01-17T08:46:17.084Z,61.40
2023-01-17T08:48:44.030Z,61.65
2023-01-17T08:51:11.291Z,61.94
2023-01-17T08:53:38.083Z,61.15
2023-01-17T08:56:05.942Z,60.86
2023-01-17T08:58:33.039Z,61.07
2023-01-17T09:01:03.846Z,60.95
2023-01-17T09:03:31.297Z,60.99
2023-01-17T09:06:17.936Z,60.69
2023-01-17T09:08:47.736Z,60.46
2023-01-17T09:11:15.009Z,60.32
2023-01-17T09:13:42.231Z,60.08
2023-01-17T09:16:09.524Z,60.10
2023-01-17T09:18:37.000Z,59.93
2023-01-17T09:21:11.751Z,60.21
2023-01-17T09:23:38.147Z,59.47
2023-01-17T09:26:04.624Z,59.22
2023-01-17T09:28:31.194Z,59.28
2023-01-17T09:30:57.621Z,58.83
2023-01-17T09:33:24.462Z,59.08
2023-01-17T09:35:50.927Z,59.18
2023-01-17T09:38:17.323Z,59.12
2023-01-17T09:40:46.961Z,59.09
2023-01-17T09:43:41.584Z,59.02
2023-01-17T09:46:22.393Z,58.51
2023-01-17T09:48:56.330Z,58.10
2023-01-17T09:51:26.536Z,57.82
2023-01-17T09:53:53.718Z,58.33
2023-01-17T09:56:29.594Z,57.64
2023-01-17T09:59:18.800Z,57.76
2023-01-17T10:02:25.954Z,58.13
2023-01-17T10:05:26.388Z,56.82
2023-01-17T10:08:04.713Z,57.01
2023-01-17T10:10:42.129Z,57.25
2023-01-17T10:13:41.105Z,57.19
2023-01-17T10:16:16.528Z,56.10
2023-01-17T10:19:10.750Z,56.14
2023-01-17T10:22:07.472Z,55.77
2023-01-17T10:25:09.922Z,55.97
2023-01-17T10:27:45.528Z,56.54
2023-01-17T10:30:37.297Z,56.22
2023-01-17T10:33:13.142Z,56.56
2023-01-17T10:35:50.794Z,56.55
2023-01-17T10:38:18.175Z,56.23
2023-01-17T10:40:51.591Z,55.74
2023-01-17T10:43:27.678Z,55.96
2023-01-17T10:45:56.608Z,56.43
2023-01-17T10:48:38.881Z,56.40
2023-01-17T10:51:49.786Z,56.44
2023-01-17T10:54:16.085Z,56.41
2023-01-17T10:56:42.773Z,55.50
2023-01-17T10:59:22.466Z,55.85
2023-01-17T11:01:51.098Z,55.53
2023-01-17T11:04:40.215Z,55.46
2023-01-17T11:07:14.388Z,55.37
2023-01-17T11:09:49.844Z,55.54
2023-01-17T11:12:33.385Z,55.71
2023-01-17T11:15:08.790Z,55.77
2023-01-17T11:18:02.795Z,55.61
2023-01-17T11:20:37.057Z,55.32
2023-01-17T11:23:16.893Z,54.98
2023-01-17T11:25:50.851Z,55.25
2023-01-17T11:28:26.204Z,55.56
2023-01-17T11:30:55.612Z,55.36
2023-01-17T11:33:47.739Z,55.48
2023-01-17T11:36:29.019Z,55.44
2023-01-17T11:39:02.723Z,55.28
2023-01-17T11:41:40.322Z,55.28
2023-01-17T11:44:23.044Z,55.33
2023-01-17T11:47:08.834Z,54.45
2023-01-17T11:49:35.745Z,54.06
2023-01-17T11:52:08.964Z,53.90
2023-01-17T11:54:40.321Z,53.63
2023-01-17T11:57:20.788Z,53.60
2023-01-17T11:59:47.961Z,53.43
2023-01-17T12:02:31.755Z,53.55
2023-01-17T12:05:33.717Z,53.53
2023-01-17T12:08:23.875Z,53.06
2023-01-17T12:11:04.377Z,53.35
2023-01-17T12:14:01.038Z,53.09
2023-01-17T12:16:43.239Z,53.25
2023-01-17T12:19:42.241Z,51.73
2023-01-17T12:22:22.668Z,52.24
2023-01-17T12:24:58.300Z,52.31
2023-01-17T12:27:28.831Z,53.24
2023-01-17T12:30:08.827Z,52.27
2023-01-17T12:32:49.329Z,52.30
2023-01-17T12:35:22.815Z,52.24
2023-01-17T12:38:04.661Z,52.60
2023-01-17T12:40:46.121Z,52.37
2023-01-17T12:43:36.888Z,53.28
2023-01-17T12:46:30.781Z,53.57
2023-01-17T12:49:19.754Z,53.44
2023-01-17T12:51:50.119Z,53.95
2023-01-17T12:54:28.770Z,53.49
2023-01-17T12:57:02.349Z,53.93
2023-01-17T12:59:54.435Z,53.97
2023-01-17T13:02:32.365Z,54.01
2023-01-17T13:05:18.356Z,54.12
2023-01-17T13:08:27.007Z,54.05
2023-01-17T13:11:02.284Z,53.80
2023-01-17T13:13:30.233Z,53.95
2023-01-17T13:16:16.268Z,53.06
2023-01-17T13:18:48.113Z,53.65
2023-01-17T13:21:32.320Z,52.76
2023-01-17T13:23:59.172Z,51.91
2023-01-17T13:26:50.754Z,52.15
2023-01-17T13:29:35.456Z,52.48
2023-01-17T13:32:21.278Z,53.01
2023-01-17T13:35:23.296Z,53.20
2023-01-17T13:38:09.611Z,53.50
2023-01-17T13:40:55.946Z,53.29
2023-01-17T13:43:30.640Z,53.11
2023-01-17T13:46:03.332Z,52.87
2023-01-17T13:48:30.878Z,53.26
2023-01-17T13:51:12.693Z,53.29
2023-01-17T13:53:39.087Z,53.28
2023-01-17T13:56:26.746Z,54.09
2023-01-17T13:58:57.912Z,54.81
2023-01-17T14:01:24.443Z,55.33
2023-01-17T14:03:51.110Z,55.60
2023-01-17T14:06:33.760Z,55.34
2023-01-17T14:09:03.339Z,55.11
2023-01-17T14:11:33.792Z,55.31
2023-01-17T14:14:36.340Z,55.62
2023-01-17T14:17:18.799Z,55.85
2023-01-17T14:19:48.120Z,56.01
2023-01-17T14:22:20.215Z,55.99
2023-01-17T14:25:03.274Z,56.31
2023-01-17T14:27:34.619Z,56.15
2023-01-17T14:30:04.332Z,56.12
2023-01-17T14:32:35.317Z,56.34
2023-01-17T14:35:02.487Z,54.61
2023-01-17T14:37:31.703Z,55.02
2023-01-17T14:39:59.407Z,55.26
2023-01-17T14:42:29.020Z,55.35
2023-01-17T14:45:08.206Z,55.14
2023-01-17T14:47:41.339Z,55.38
2023-01-17T14:50:29.532Z,55.59
2023-01-17T14:53:10.722Z,55.26
2023-01-17T14:55:38.628Z,55.44
2023-01-17T14:58:05.253Z,55.75
2023-01-17T15:00:34.950Z,55.77
2023-01-17T15:03:02.229Z,55.94
2023-01-17T15:05:29.834Z,55.98
2023-01-17T15:07:58.103Z,55.92
2023-01-17T15:10:31.278Z,56.49
2023-01-17T15:13:05.337Z,57.03
2023-01-17T15:15:35.386Z,56.72
2023-01-17T15:18:08.842Z,57.06
2023-01-17T15:20:37.419Z,57.48
2023-01-17T15:23:04.222Z,57.09
2023-01-17T15:25:30.968Z,57.37
2023-01-17T15:27:57.636Z,57.07
2023-01-17T15:30:25.244Z,57.45
2023-01-17T15:32:52.507Z,57.15
2023-01-17T15:35:20.472Z,57.85
2023-01-17T15:37:53.472Z,59.32
2023-01-17T15:40:25.428Z,58.76
2023-01-17T15:42:56.627Z,59.38
2023-01-17T15:45:29.485Z,59.23
2023-01-17T15:47:56.055Z,59.44
2023-01-17T15:50:24.560Z,59.21
2023-01-17T15:52:55.172Z,58.84
2023-01-17T15:55:36.173Z,60.44
2023-01-17T15:58:04.494Z,60.34
2023-01-17T16:00:39.177Z,58.91
2023-01-17T16:03:22.772Z,59.08
2023-01-17T16:05:49.761Z,59.47
2023-01-17T16:08:16.296Z,58.78
2023-01-17T16:10:44.135Z,59.00
2023-01-17T16:13:12.889Z,59.37
2023-01-17T16:15:42.352Z,59.16
2023-01-17T16:18:18.727Z,58.96
2023-01-17T16:20:54.637Z,62.17
2023-01-17T16:23:20.953Z,59.92
2023-01-17T16:25:47.985Z,58.95
2023-01-17T16:28:14.388Z,59.00
2023-01-17T16:30:40.890Z,60.11
2023-01-17T16:33:11.340Z,59.95
2023-01-17T16:35:39.388Z,59.31
2023-01-17T16:38:12.529Z,59.70
2023-01-17T16:40:41.224Z,59.52
2023-01-17T16:43:07.831Z,59.43
2023-01-17T16:45:46.459Z,59.52
2023-01-17T16:48:13.013Z,59.80
2023-01-17T16:50:48.240Z,59.86
2023-01-17T16:53:15.233Z,60.04
2023-01-17T16:55:43.061Z,60.14
2023-01-17T16:58:09.757Z,60.15
2023-01-17T17:00:36.116Z,60.14
2023-01-17T17:03:02.660Z,60.29
2023-01-17T17:05:30.572Z,60.47
2023-01-17T17:07:57.454Z,60.95
2023-01-17T17:10:25.198Z,61.04
2023-01-17T17:12:51.991Z,61.64
2023-01-17T17:15:18.512Z,61.85
2023-01-17T17:17:45.044Z,67.52
2023-01-17T17:20:14.344Z,66.24
2023-01-17T17:22:45.625Z,63.41
2023-01-17T17:25:12.248Z,62.63
2023-01-17T17:27:38.753Z,63.07
2023-01-17T17:30:06.222Z,62.73
2023-01-17T17:32:32.615Z,62.86
2023-01-17T17:34:59.341Z,63.10
2023-01-17T17:37:28.722Z,63.09
2023-01-17T17:39:56.189Z,63.07
2023-01-17T17:42:22.745Z,63.67
2023-01-17T17:44:49.114Z,64.36
2023-01-17T17:47:16.133Z,64.38
2023-01-17T17:49:43.268Z,64.74
2023-01-17T17:52:10.175Z,65.08
2023-01-17T17:54:36.621Z,64.80
2023-01-17T17:57:03.305Z,65.17
2023-01-17T17:59:29.855Z,64.72
2023-01-17T18:01:56.284Z,64.95
2023-01-17T18:04:22.774Z,65.53
2023-01-17T18:06:49.137Z,65.92
2023-01-17T18:09:16.082Z,65.71
2023-01-17T18:11:43.646Z,67.05
2023-01-17T18:14:14.275Z,67.39
2023-01-17T18:16:43.111Z,67.97
2023-01-17T18:19:15.598Z,66.80
2023-01-17T18:21:42.899Z,68.19
2023-01-17T18:24:14.496Z,67.38
2023-01-17T18:26:49.899Z,67.52
2023-01-17T18:29:18.097Z,67.75
2023-01-17T18:31:45.682Z,67.56
2023-01-17T18:34:15.157Z,67.35
2023-01-17T18:36:42.996Z,67.43
2023-01-17T18:39:15.433Z,67.65
2023-01-17T18:41:42.373Z,67.49
2023-01-17T18:44:09.189Z,67.49
2023-01-17T18:46:36.207Z,67.92
2023-01-17T18:49:04.211Z,68.39
2023-01-17T18:51:32.552Z,68.63
2023-01-17T18:54:02.857Z,68.18
2023-01-17T18:56:34.357Z,69.46
2023-01-17T18:59:02.311Z,68.52
2023-01-17T19:01:33.632Z,68.98
2023-01-17T19:04:02.571Z,69.43
2023-01-17T19:06:32.457Z,70.28
2023-01-17T19:08:59.531Z,69.83
2023-01-17T19:11:27.599Z,70.25
2023-01-17T19:13:54.469Z,70.57
2023-01-17T19:16:28.067Z,71.15
2023-01-17T19:18:56.625Z,70.75
2023-01-17T19:21:25.380Z,71.34
2023-01-17T19:23:52.208Z,71.35
2023-01-17T19:26:20.210Z,71.56
2023-01-17T19:28:50.134Z,71.27
2023-01-17T19:31:23.010Z,71.52
2023-01-17T19:33:52.146Z,71.86
2023-01-17T19:36:21.116Z,71.86
2023-01-17T19:39:03.046Z,71.74
2023-01-17T19:41:31.205Z,71.99
2023-01-17T19:44:00.239Z,72.34
2023-01-17T19:46:27.590Z,72.49
2023-01-17T19:48:55.569Z,72.84
2023-01-17T19:51:23.072Z,72.63
2023-01-17T19:53:49.667Z,72.68
2023-01-17T19:56:23.603Z,72.90
2023-01-17T19:58:50.405Z,72.53
2023-01-17T20:01:22.123Z,72.63
2023-01-17T20:03:49.563Z,73.13
2023-01-17T20:06:18.893Z,72.88
2023-01-17T20:08:45.706Z,73.31
2023-01-17T20:11:15.586Z,72.73
2023-01-17T20:13:42.075Z,73.10
2023-01-17T20:16:11.334Z,73.17
2023-01-17T20:18:38.566Z,72.93
2023-01-17T20:21:07.548Z,73.68
2023-01-17T20:23:38.784Z,73.65
2023-01-17T20:26:06.109Z,73.26
2023-01-17T20:28:34.302Z,73.37
2023-01-17T20:31:24.004Z,72.68
2023-01-17T20:33:54.087Z,72.90
2023-01-17T20:36:22.696Z,73.51
2023-01-17T20:38:49.355Z,73.71
2023-01-17T20:41:24.977Z,73.97
2023-01-17T20:43:53.960Z,73.69
2023-01-17T20:46:23.038Z,73.63
2023-01-17T20:48:51.524Z,73.61
2023-01-17T20:51:19.084Z,74.23
2023-01-17T20:53:46.849Z,74.19
2023-01-17T20:56:14.988Z,73.69
2023-01-17T20:58:41.927Z,73.93
2023-01-17T21:01:10.271Z,73.88
2023-01-17T21:03:37.845Z,74.13
2023-01-17T21:06:13.831Z,74.54
2023-01-17T21:08:42.643Z,74.30
2023-01-17T21:11:12.320Z,74.52
2023-01-17T21:13:39.244Z,74.45
2023-01-17T21:16:08.135Z,73.92
2023-01-17T21:18:35.053Z,74.16
2023-01-17T21:21:13.207Z,74.60
2023-01-17T21:23:41.297Z,73.93
2023-01-17T21:26:10.817Z,74.44
2023-01-17T21:28:59.376Z,74.69
2023-01-17T21:31:28.540Z,74.22
2023-01-17T21:33:57.363Z,74.54
2023-01-17T21:36:28.926Z,74.91
2023-01-17T21:38:57.510Z,74.67
2023-01-17T21:41:28.924Z,74.65
2023-01-17T21:44:00.670Z,74.39
2023-01-17T21:46:28.999Z,75.45
2023-01-17T21:48:57.545Z,75.60
2023-01-17T21:51:24.319Z,74.87
2023-01-17T21:53:50.788Z,73.50
2023-01-17T21:56:36.001Z,74.36
2023-01-17T21:59:02.383Z,73.88
2023-01-17T22:01:32.002Z,73.76
2023-01-17T22:04:06.644Z,74.01
2023-01-17T22:06:39.283Z,74.43
2023-01-17T22:09:05.836Z,73.74
2023-01-17T22:11:32.549Z,74.61
2023-01-17T22:13:59.488Z,74.25
2023-01-17T22:16:26.117Z,74.14
2023-01-17T22:18:52.704Z,73.84
2023-01-17T22:21:28.704Z,74.07
2023-01-17T22:23:59.513Z,74.34
2023-01-17T22:26:28.947Z,74.53
2023-01-17T22:28:55.841Z,74.88
2023-01-17T22:31:24.806Z,74.58
2023-01-17T22:33:59.573Z,73.90
2023-01-17T22:36:26.695Z,73.65
2023-01-17T22:38:53.151Z,72.90
2023-01-17T22:41:25.301Z,72.87
2023-01-17T22:43:53.766Z,73.58
2023-01-17T22:46:25.881Z,73.88
2023-01-17T22:48:53.722Z,73.91
2023-01-17T22:51:22.283Z,74.20
2023-01-17T22:53:51.038Z,74.43
2023-01-17T22:56:19.756Z,74.08
2023-01-17T22:58:48.067Z,75.67
2023-01-17T23:01:25.102Z,74.87
2023-01-17T23:03:54.597Z,73.55
2023-01-17T23:06:25.547Z,73.29
2023-01-17T23:09:20.235Z,72.72
2023-01-17T23:11:49.678Z,72.46
2023-01-17T23:14:21.320Z,72.59
2023-01-17T23:17:21.021Z,73.21
2023-01-17T23:19:50.874Z,73.09
2023-01-17T23:22:26.893Z,73.22
2023-01-17T23:25:02.284Z,72.97
2023-01-17T23:28:02.221Z,73.27
2023-01-17T23:30:34.378Z,73.89
2023-01-17T23:33:04.489Z,74.22
2023-01-17T23:35:34.234Z,74.27
2023-01-17T23:38:19.526Z,73.85
2023-01-17T23:41:04.846Z,73.96
2023-01-17T23:43:32.067Z,73.39
2023-01-17T23:45:58.724Z,73.24
2023-01-17T23:48:28.546Z,72.96
2023-01-17T23:50:59.607Z,72.36
2023-01-17T23:53:27.371Z,72.57
2023-01-17T23:55:55.866Z,72.77
2023-01-17T23:58:24.487Z,72.89
